Time;durP1;ratioP1;P1;durP2;ratioP2;P2;SDS_P1;SDS_P2;PMS_P1;PMS_P2;Temp;Humidity;BMP_temperature;BMP_pressure;BME280_temperature;BME280_humidity;BME280_pressure;Samples;Min_cycle;Max_cycle;Signal;HPM_P1;HPM_P2
2022/08/30 00:02:51;;;;;;;3.28;1.42;;;19.80;99.90;;;;;;5075977;28;20043;-82
2022/08/30 00:05:17;;;;;;;3.15;1.27;;;19.80;99.90;;;;;;5069452;28;20013;-82
2022/08/30 00:07:42;;;;;;;3.08;1.20;;;19.70;99.90;;;;;;5062787;28;20095;-83
2022/08/30 00:10:09;;;;;;;3.50;1.40;;;19.70;99.90;;;;;;5073779;28;20012;-83
2022/08/30 00:12:35;;;;;;;2.95;1.30;;;19.70;99.90;;;;;;5068668;28;20033;-82
2022/08/30 00:15:01;;;;;;;5.47;1.60;;;19.70;99.90;;;;;;5068653;28;20035;-81
2022/08/30 00:17:26;;;;;;;3.08;1.30;;;19.60;99.90;;;;;;5072247;28;20068;-83
2022/08/30 00:19:52;;;;;;;3.72;1.45;;;19.60;99.90;;;;;;5068102;28;20028;-83
2022/08/30 00:22:18;;;;;;;3.17;1.55;;;19.60;99.90;;;;;;5066502;28;20056;-83
2022/08/30 00:24:43;;;;;;;3.00;1.25;;;19.60;99.90;;;;;;5089565;28;20103;-83
2022/08/30 00:27:09;;;;;;;3.65;1.08;;;19.50;99.90;;;;;;5063114;28;20017;-83
2022/08/30 00:29:34;;;;;;;3.28;1.45;;;19.50;99.90;;;;;;5064872;28;20078;-82
2022/08/30 00:32:01;;;;;;;3.50;1.30;;;19.50;99.90;;;;;;5067564;28;20020;-83
2022/08/30 00:34:27;;;;;;;3.83;1.33;;;19.50;99.90;;;;;;5068411;28;20025;-82
2022/08/30 00:36:53;;;;;;;3.00;1.35;;;19.50;99.90;;;;;;5074640;28;20024;-83
2022/08/30 00:39:18;;;;;;;2.42;1.20;;;19.40;99.90;;;;;;5074316;28;20043;-83
2022/08/30 00:41:44;;;;;;;4.10;1.70;;;19.40;99.90;;;;;;5086547;28;20063;-83
2022/08/30 00:44:10;;;;;;;3.00;1.35;;;19.40;99.90;;;;;;5069368;28;20474;-82
2022/08/30 00:46:35;;;;;;;4.18;1.65;;;19.30;99.90;;;;;;5062999;28;20020;-83
2022/08/30 00:49:05;;;;;;;3.92;1.42;;;19.20;99.90;;;;;;5072746;28;20031;-83
2022/08/30 00:51:32;;;;;;;5.80;1.40;;;19.30;99.90;;;;;;5070967;28;20028;-84
2022/08/30 00:53:58;;;;;;;3.50;1.50;;;19.30;99.90;;;;;;5069909;28;20044;-82
2022/08/30 00:56:25;;;;;;;2.47;1.02;;;19.20;99.90;;;;;;5073179;28;20082;-82
2022/08/30 00:58:54;;;;;;;3.45;1.63;;;19.20;99.90;;;;;;5063257;28;20020;-83
2022/08/30 01:01:20;;;;;;;3.75;1.58;;;19.20;99.90;;;;;;5066586;28;20087;-83
2022/08/30 01:03:46;;;;;;;3.95;1.40;;;19.20;99.90;;;;;;5074268;28;20435;-82
2022/08/30 01:06:14;;;;;;;2.70;1.27;;;19.20;99.90;;;;;;5070422;28;20111;-83
2022/08/30 01:08:40;;;;;;;3.97;1.23;;;19.20;99.90;;;;;;5076040;28;20017;-82
2022/08/30 01:11:07;;;;;;;4.05;1.42;;;19.20;99.90;;;;;;5068272;28;20048;-82
2022/08/30 01:13:34;;;;;;;2.95;1.30;;;19.10;99.90;;;;;;5060360;28;20036;-83
2022/08/30 01:16:01;;;;;;;3.47;1.35;;;19.10;99.90;;;;;;5084403;28;20027;-83
2022/08/30 01:18:27;;;;;;;4.80;1.70;;;19.10;99.90;;;;;;5069202;28;20499;-83
2022/08/30 01:21:23;;;;;;;2.67;1.20;;;19.00;99.90;;;;;;5069733;28;20021;-83
2022/08/30 01:23:52;;;;;;;4.00;1.30;;;19.00;99.90;;;;;;5083698;28;20027;-83
2022/08/30 01:26:19;;;;;;;2.95;1.25;;;19.00;99.90;;;;;;5070987;28;20501;-83
2022/08/30 01:28:49;;;;;;;4.80;1.58;;;18.90;99.90;;;;;;5059013;28;20028;-83
2022/08/30 01:31:14;;;;;;;3.42;1.20;;;18.90;99.90;;;;;;5067216;28;20051;-82
2022/08/30 01:33:40;;;;;;;3.33;1.35;;;18.80;99.90;;;;;;5070919;28;20485;-83
2022/08/30 01:36:11;;;;;;;3.70;1.58;;;18.80;99.90;;;;;;5066117;28;20071;-84
2022/08/30 01:38:46;;;;;;;4.35;1.55;;;18.80;99.90;;;;;;5063975;28;20108;-83
2022/08/30 01:41:25;;;;;;;3.50;1.60;;;18.80;99.90;;;;;;5085909;28;20031;-83
2022/08/30 01:43:54;;;;;;;4.63;1.42;;;18.70;99.90;;;;;;5068342;28;20067;-83
2022/08/30 01:46:23;;;;;;;3.35;1.70;;;18.70;99.90;;;;;;5070193;28;20457;-83
2022/08/30 01:48:49;;;;;;;2.40;1.25;;;18.70;99.90;;;;;;5068514;28;20063;-83
2022/08/30 01:51:15;;;;;;;4.75;1.52;;;18.70;99.90;;;;;;5070341;28;20032;-82
2022/08/30 01:53:43;;;;;;;3.55;1.75;;;18.60;99.90;;;;;;5068433;28;20043;-83
2022/08/30 01:56:09;;;;;;;5.80;1.60;;;18.60;99.90;;;;;;5065430;28;20082;-81
2022/08/30 01:58:36;;;;;;;5.97;1.88;;;18.60;99.90;;;;;;5071673;28;20032;-83
2022/08/30 02:01:05;;;;;;;5.65;1.77;;;18.50;99.90;;;;;;5066801;28;20021;-83
2022/08/30 02:03:34;;;;;;;2.65;1.40;;;18.50;99.90;;;;;;5087486;28;20028;-82
2022/08/30 02:06:07;;;;;;;4.00;1.70;;;18.50;99.90;;;;;;5062252;28;20017;-82
2022/08/30 02:08:33;;;;;;;4.35;2.08;;;18.50;99.90;;;;;;5063797;28;20027;-82
2022/08/30 02:10:59;;;;;;;2.92;1.63;;;18.40;99.90;;;;;;5075516;28;20059;-83
2022/08/30 02:13:29;;;;;;;3.45;1.42;;;18.40;99.90;;;;;;5075374;28;20051;-84
2022/08/30 02:15:55;;;;;;;3.92;1.45;;;18.30;99.90;;;;;;5070199;28;20016;-82
2022/08/30 02:18:21;;;;;;;4.63;1.70;;;18.40;99.90;;;;;;5075843;28;20017;-83
2022/08/30 02:20:47;;;;;;;3.97;1.80;;;18.40;99.90;;;;;;5072277;28;20020;-81
2022/08/30 02:23:12;;;;;;;2.78;1.52;;;18.40;99.90;;;;;;5071665;28;20430;-82
2022/08/30 02:25:39;;;;;;;4.97;1.17;;;18.40;99.90;;;;;;5089235;28;20032;-83
2022/08/30 02:28:05;;;;;;;4.38;1.40;;;18.30;99.90;;;;;;5071393;28;20020;-83
2022/08/30 02:30:30;;;;;;;2.97;1.52;;;18.30;99.90;;;;;;5074406;28;20031;-83
2022/08/30 02:32:56;;;;;;;4.28;1.67;;;18.30;99.90;;;;;;5073297;28;20024;-83
2022/08/30 02:35:22;;;;;;;5.55;1.75;;;18.30;99.90;;;;;;5073052;28;20016;-82
2022/08/30 02:37:48;;;;;;;3.63;1.60;;;18.30;99.90;;;;;;5070796;28;20081;-82
2022/08/30 02:40:14;;;;;;;3.10;1.40;;;18.30;99.90;;;;;;5068819;28;20033;-82
2022/08/30 02:42:40;;;;;;;4.68;1.45;;;18.20;99.90;;;;;;5068369;28;20518;-83
2022/08/30 02:45:07;;;;;;;3.40;1.35;;;18.20;99.90;;;;;;5067107;28;20103;-82
2022/08/30 02:47:32;;;;;;;4.32;1.40;;;18.20;99.90;;;;;;5061834;28;20025;-82
2022/08/30 02:49:58;;;;;;;2.78;1.42;;;18.20;99.90;;;;;;5071928;28;20036;-82
2022/08/30 02:52:24;;;;;;;5.07;1.60;;;18.20;99.90;;;;;;5073742;28;20017;-83
2022/08/30 02:54:49;;;;;;;4.03;1.33;;;18.20;99.90;;;;;;5070886;28;20024;-83
2022/08/30 02:57:15;;;;;;;5.03;1.52;;;18.20;99.90;;;;;;5073608;28;20020;-83
2022/08/30 02:59:43;;;;;;;2.58;1.27;;;18.20;99.90;;;;;;5070415;28;20040;-82
2022/08/30 03:02:10;;;;;;;3.50;1.77;;;18.10;99.90;;;;;;5064821;28;20031;-82
2022/08/30 03:04:37;;;;;;;3.47;1.48;;;18.10;99.90;;;;;;5086541;22;20033;-81
2022/08/30 03:07:04;;;;;;;4.18;1.60;;;18.00;99.90;;;;;;5096055;28;20039;-82
2022/08/30 03:09:30;;;;;;;5.25;1.40;;;18.00;99.90;;;;;;5088369;28;20019;-81
2022/08/30 03:11:55;;;;;;;3.88;1.67;;;18.00;99.90;;;;;;5090607;28;20439;-81
2022/08/30 03:14:21;;;;;;;3.55;1.52;;;18.00;99.90;;;;;;5092740;28;20544;-81
2022/08/30 03:16:47;;;;;;;3.00;1.50;;;18.00;99.90;;;;;;5066016;28;20017;-82
2022/08/30 03:19:12;;;;;;;3.65;1.48;;;17.90;99.90;;;;;;5069917;28;20025;-81
2022/08/30 03:21:38;;;;;;;3.67;1.33;;;17.90;99.90;;;;;;5064425;28;20109;-82
2022/08/30 03:24:04;;;;;;;4.07;1.90;;;17.90;99.90;;;;;;5059236;28;20021;-81
2022/08/30 03:26:30;;;;;;;3.10;1.40;;;17.90;99.90;;;;;;5065455;28;20056;-81
2022/08/30 03:28:55;;;;;;;3.70;1.50;;;17.90;99.90;;;;;;5060612;28;20481;-82
2022/08/30 03:31:21;;;;;;;3.22;1.60;;;17.80;99.90;;;;;;5070702;28;20092;-81
2022/08/30 03:33:46;;;;;;;3.42;1.52;;;17.80;99.90;;;;;;5070560;28;20098;-81
2022/08/30 03:36:12;;;;;;;4.03;1.60;;;17.70;99.90;;;;;;5066245;28;20039;-81
2022/08/30 03:38:38;;;;;;;4.30;1.50;;;17.80;99.90;;;;;;5085419;28;20013;-81
2022/08/30 03:41:04;;;;;;;4.22;1.85;;;17.70;99.90;;;;;;5066952;28;20024;-81
2022/08/30 03:43:32;;;;;;;3.65;1.40;;;17.60;99.90;;;;;;5082116;28;20426;-81
2022/08/30 03:45:59;;;;;;;3.78;1.83;;;17.60;99.90;;;;;;5062133;28;20048;-81
2022/08/30 03:48:25;;;;;;;3.75;1.88;;;17.60;99.90;;;;;;5067439;28;20023;-81
2022/08/30 03:50:51;;;;;;;3.83;1.83;;;17.60;99.90;;;;;;5070191;28;20104;-81
2022/08/30 03:53:17;;;;;;;4.50;1.85;;;17.60;99.90;;;;;;5085943;28;20455;-81
2022/08/30 03:55:42;;;;;;;3.60;1.77;;;17.60;99.90;;;;;;5069469;28;20439;-81
2022/08/30 03:58:08;;;;;;;3.92;1.88;;;17.50;99.90;;;;;;5071373;28;20024;-81
2022/08/30 04:00:33;;;;;;;4.70;1.85;;;17.50;99.90;;;;;;5068135;28;20887;-82
2022/08/30 04:02:59;;;;;;;4.78;1.80;;;17.50;99.90;;;;;;5083421;28;20057;-81
2022/08/30 04:05:26;;;;;;;3.50;1.70;;;17.50;99.90;;;;;;5067288;28;20032;-81
2022/08/30 04:07:52;;;;;;;5.18;2.10;;;17.50;99.90;;;;;;5069756;28;20028;-82
2022/08/30 04:10:20;;;;;;;4.07;1.90;;;17.50;99.90;;;;;;5060143;28;20036;-81
2022/08/30 04:12:46;;;;;;;4.32;1.98;;;17.50;99.90;;;;;;5069830;28;20028;-81
2022/08/30 04:15:13;;;;;;;5.43;2.00;;;17.40;99.90;;;;;;5057721;28;20115;-81
2022/08/30 04:17:38;;;;;;;5.95;2.38;;;17.50;99.90;;;;;;5060902;28;20034;-81
2022/08/30 04:20:05;;;;;;;4.22;2.10;;;17.40;99.90;;;;;;5067046;28;20603;-81
2022/08/30 04:22:30;;;;;;;3.55;1.83;;;17.40;99.90;;;;;;5070901;28;20033;-81
2022/08/30 04:24:56;;;;;;;4.53;2.10;;;17.40;99.90;;;;;;5070436;28;20436;-81
2022/08/30 04:27:22;;;;;;;5.97;2.47;;;17.40;99.90;;;;;;5070104;28;20029;-81
2022/08/30 04:29:48;;;;;;;4.70;2.00;;;17.40;99.90;;;;;;5086338;28;20021;-81
2022/08/30 04:32:15;;;;;;;4.70;2.33;;;17.40;99.90;;;;;;5066390;28;20029;-81
2022/08/30 04:34:41;;;;;;;5.50;2.55;;;17.40;99.90;;;;;;5068259;28;20082;-81
2022/08/30 04:37:06;;;;;;;6.85;2.53;;;17.40;99.90;;;;;;5064210;28;20577;-81
2022/08/30 04:39:32;;;;;;;4.88;2.58;;;17.20;99.90;;;;;;5069485;28;20028;-81
2022/08/30 04:41:58;;;;;;;4.90;2.47;;;17.40;99.90;;;;;;5070834;28;20024;-81
2022/08/30 04:44:26;;;;;;;4.80;2.80;;;17.30;99.90;;;;;;5064916;28;20028;-81
2022/08/30 04:46:52;;;;;;;5.32;2.72;;;17.30;99.90;;;;;;5061513;28;20012;-81
2022/08/30 04:49:18;;;;;;;6.22;2.80;;;17.30;99.90;;;;;;5070324;28;20158;-81
2022/08/30 04:51:44;;;;;;;5.85;2.35;;;17.30;99.90;;;;;;5069497;28;20062;-81
2022/08/30 04:54:09;;;;;;;4.93;2.20;;;17.30;99.90;;;;;;5070679;28;20074;-81
2022/08/30 04:56:35;;;;;;;5.00;2.20;;;17.30;99.90;;;;;;5063970;28;20032;-81
2022/08/30 04:59:01;;;;;;;4.95;2.50;;;17.30;99.90;;;;;;5068789;28;20027;-81
2022/08/30 05:01:31;;;;;;;5.45;2.35;;;17.30;99.90;;;;;;5067847;28;20029;-81
2022/08/30 05:03:57;;;;;;;6.13;2.67;;;17.30;99.90;;;;;;5069858;28;20017;-81
2022/08/30 05:06:26;;;;;;;5.30;2.58;;;17.20;99.90;;;;;;5069452;28;20052;-82
2022/08/30 05:08:52;;;;;;;4.85;2.70;;;17.20;99.90;;;;;;5065363;28;20032;-82
2022/08/30 05:11:19;;;;;;;7.40;3.10;;;17.30;99.90;;;;;;5060574;28;20527;-82
2022/08/30 05:13:45;;;;;;;5.15;2.38;;;17.30;99.90;;;;;;5060949;28;20029;-82
2022/08/30 05:16:16;;;;;;;6.18;2.63;;;17.40;99.90;;;;;;5063262;28;20369;-82
2022/08/30 05:18:43;;;;;;;5.10;2.58;;;17.40;99.90;;;;;;5067299;28;20024;-82
2022/08/30 05:21:17;;;;;;;6.05;2.53;;;17.50;99.90;;;;;;5069432;28;20030;-82
2022/08/30 05:23:43;;;;;;;6.18;3.05;;;17.50;99.90;;;;;;5069522;28;20101;-82
2022/08/30 05:26:12;;;;;;;5.03;2.42;;;17.60;99.90;;;;;;5061035;28;20017;-82
2022/08/30 05:28:38;;;;;;;5.38;2.38;;;17.70;99.90;;;;;;5070446;28;20021;-82
2022/08/30 05:31:21;;;;;;;5.93;2.80;;;17.80;99.90;;;;;;5069284;28;20021;-83
2022/08/30 05:33:48;;;;;;;5.00;2.75;;;18.00;99.90;;;;;;5070894;28;20068;-83
2022/08/30 05:36:16;;;;;;;4.50;2.47;;;18.00;99.90;;;;;;5070413;28;20548;-83
2022/08/30 05:38:43;;;;;;;4.55;2.35;;;18.10;99.90;;;;;;5070489;28;20060;-83
2022/08/30 05:41:09;;;;;;;5.68;2.55;;;18.20;99.90;;;;;;5071407;28;20561;-83
2022/08/30 05:43:35;;;;;;;4.32;2.38;;;18.30;99.90;;;;;;5090346;28;20020;-83
2022/08/30 05:46:10;;;;;;;4.40;2.28;;;18.30;99.90;;;;;;5069888;28;20478;-83
2022/08/30 05:48:36;;;;;;;5.65;2.53;;;18.30;99.90;;;;;;5073534;28;20032;-82
2022/08/30 05:51:18;;;;;;;7.53;2.78;;;18.20;99.90;;;;;;5073777;28;20385;-83
2022/08/30 05:53:44;;;;;;;7.40;3.17;;;18.10;99.90;;;;;;5073142;28;20024;-83
2022/08/30 05:56:13;;;;;;;7.18;3.85;;;18.10;99.90;;;;;;5067056;28;20028;-82
2022/08/30 05:58:39;;;;;;;5.97;3.72;;;18.10;99.90;;;;;;5068142;28;20020;-82
2022/08/30 06:01:07;;;;;;;6.82;3.97;;;18.00;99.90;;;;;;5070495;28;20027;-82
2022/08/30 06:03:32;;;;;;;6.88;3.72;;;18.00;99.90;;;;;;5074956;28;20033;-83
2022/08/30 06:05:58;;;;;;;5.57;3.10;;;17.90;99.90;;;;;;5069421;28;20100;-82
2022/08/30 06:08:25;;;;;;;6.45;2.80;;;18.00;99.90;;;;;;5084433;28;20028;-82
2022/08/30 06:10:51;;;;;;;4.30;2.38;;;18.00;99.90;;;;;;5083636;28;20020;-82
2022/08/30 06:13:17;;;;;;;4.40;2.30;;;18.10;99.90;;;;;;5072717;28;20114;-82
2022/08/30 06:15:44;;;;;;;4.75;2.67;;;18.20;99.90;;;;;;5078295;28;20016;-82
2022/08/30 06:18:11;;;;;;;6.03;2.70;;;18.30;99.90;;;;;;5074339;28;20026;-83
2022/08/30 06:20:42;;;;;;;5.80;2.55;;;18.40;99.90;;;;;;5073182;28;20126;-82
2022/08/30 06:23:08;;;;;;;6.95;2.97;;;18.50;99.90;;;;;;5070743;28;20032;-83
2022/08/30 06:25:37;;;;;;;5.85;2.90;;;18.70;99.90;;;;;;5073312;28;20024;-82
2022/08/30 06:28:06;;;;;;;6.97;3.20;;;18.90;99.90;;;;;;5073870;28;20039;-82
2022/08/30 06:30:33;;;;;;;5.97;2.88;;;18.90;99.90;;;;;;5071455;28;20131;-82
2022/08/30 06:32:59;;;;;;;5.90;3.17;;;19.10;99.90;;;;;;5069398;28;20027;-83
2022/08/30 06:35:27;;;;;;;6.88;3.22;;;19.20;99.90;;;;;;5072936;28;20526;-83
2022/08/30 06:37:53;;;;;;;5.78;3.10;;;19.20;99.90;;;;;;5082462;28;20036;-83
2022/08/30 06:40:20;;;;;;;5.70;3.13;;;19.30;99.90;;;;;;5074375;28;20111;-83
2022/08/30 06:42:46;;;;;;;5.55;2.50;;;19.40;99.90;;;;;;5072955;28;20048;-83
2022/08/30 06:45:14;;;;;;;6.47;3.05;;;19.40;99.90;;;;;;5069995;28;20062;-83
2022/08/30 06:47:40;;;;;;;5.88;2.92;;;19.60;99.90;;;;;;5067091;28;20021;-83
2022/08/30 06:50:06;;;;;;;5.82;2.53;;;19.70;99.90;;;;;;5069065;28;20040;-83
2022/08/30 06:52:32;;;;;;;5.55;2.83;;;19.80;99.90;;;;;;5065640;28;20512;-83
2022/08/30 06:54:57;;;;;;;5.60;3.05;;;20.00;99.90;;;;;;5073346;28;20032;-83
2022/08/30 06:57:24;;;;;;;5.78;2.90;;;20.00;99.90;;;;;;5070177;28;20023;-83
2022/08/30 06:59:57;;;;;;;5.97;2.30;;;20.10;99.90;;;;;;5073823;28;20025;-84
2022/08/30 07:02:23;;;;;;;7.55;2.90;;;20.40;99.90;;;;;;5067047;28;20049;-83
2022/08/30 07:04:48;;;;;;;4.03;2.33;;;20.60;99.90;;;;;;5066721;28;20033;-83
2022/08/30 07:07:14;;;;;;;4.53;2.22;;;20.70;99.90;;;;;;5070105;28;20108;-83
2022/08/30 07:09:42;;;;;;;4.97;2.38;;;20.70;99.90;;;;;;5075745;28;20155;-82
2022/08/30 07:12:09;;;;;;;5.28;2.40;;;21.00;99.90;;;;;;5071905;28;20050;-83
2022/08/30 07:14:36;;;;;;;4.82;2.50;;;21.00;99.90;;;;;;5067578;28;20509;-82
2022/08/30 07:17:01;;;;;;;4.50;1.85;;;21.20;99.90;;;;;;5071486;28;20024;-82
2022/08/30 07:19:27;;;;;;;4.07;1.80;;;21.30;99.90;;;;;;5073153;28;20023;-82
2022/08/30 07:21:53;;;;;;;4.35;1.90;;;21.40;99.90;;;;;;5080327;28;20158;-83
2022/08/30 07:24:19;;;;;;;4.82;1.92;;;21.50;99.90;;;;;;5064882;28;20038;-82
2022/08/30 07:26:48;;;;;;;5.15;1.80;;;21.50;99.90;;;;;;5071270;28;20024;-82
2022/08/30 07:29:16;;;;;;;5.18;2.08;;;21.50;99.90;;;;;;5071171;28;20098;-82
2022/08/30 07:31:42;;;;;;;4.03;1.83;;;21.50;99.90;;;;;;5068660;28;20121;-82
2022/08/30 07:34:08;;;;;;;4.57;1.90;;;21.40;99.90;;;;;;5072413;28;20017;-83
2022/08/30 07:36:35;;;;;;;5.72;1.85;;;21.60;99.90;;;;;;5066982;28;20397;-83
2022/08/30 07:39:02;;;;;;;5.05;2.03;;;21.70;99.90;;;;;;5071644;28;20029;-83
2022/08/30 07:41:31;;;;;;;4.38;2.15;;;21.70;99.90;;;;;;5068948;28;20035;-82
2022/08/30 07:43:57;;;;;;;3.22;1.77;;;21.90;99.90;;;;;;5071318;28;20023;-82
2022/08/30 07:46:24;;;;;;;5.22;2.00;;;21.80;99.90;;;;;;5070532;28;20017;-82
2022/08/30 07:48:50;;;;;;;6.05;1.73;;;21.80;99.90;;;;;;5060878;28;20585;-82
2022/08/30 07:51:18;;;;;;;3.83;1.90;;;21.80;99.90;;;;;;5071475;28;20111;-83
2022/08/30 07:53:44;;;;;;;3.97;2.30;;;21.90;99.90;;;;;;5069984;28;20031;-83
2022/08/30 07:56:11;;;;;;;3.78;2.15;;;21.90;99.90;;;;;;5070028;28;20155;-82
2022/08/30 07:58:37;;;;;;;4.05;1.85;;;22.10;99.90;;;;;;5071712;28;20032;-83
2022/08/30 08:01:07;;;;;;;7.40;1.70;;;22.20;99.90;;;;;;5068517;28;20032;-83
2022/08/30 08:03:33;;;;;;;4.03;1.95;;;22.50;99.90;;;;;;5070476;28;20115;-83
2022/08/30 08:06:03;;;;;;;5.72;1.75;;;22.60;99.90;;;;;;5071221;28;20124;-83
2022/08/30 08:08:29;;;;;;;4.77;1.90;;;22.70;99.90;;;;;;5072141;28;20020;-83
2022/08/30 08:10:55;;;;;;;3.63;1.58;;;22.80;99.90;;;;;;5087805;28;20471;-83
2022/08/30 08:13:22;;;;;;;6.22;1.77;;;22.90;99.90;;;;;;5062111;28;20024;-83
2022/08/30 08:15:48;;;;;;;4.60;1.83;;;23.20;99.90;;;;;;5069347;28;20020;-83
2022/08/30 08:18:13;;;;;;;3.72;1.77;;;23.30;99.90;;;;;;5058198;28;20019;-82
2022/08/30 08:20:39;;;;;;;3.42;1.77;;;23.50;99.90;;;;;;5071095;28;20059;-82
2022/08/30 08:23:05;;;;;;;4.13;1.80;;;23.60;99.90;;;;;;5056940;28;20043;-83
2022/08/30 08:25:31;;;;;;;2.75;1.45;;;23.70;99.90;;;;;;5061904;28;20397;-82
2022/08/30 08:27:57;;;;;;;4.47;2.15;;;23.80;99.90;;;;;;5086977;28;20019;-82
2022/08/30 08:30:23;;;;;;;5.22;2.00;;;23.80;99.90;;;;;;5070436;28;20509;-82
2022/08/30 08:32:49;;;;;;;4.38;2.20;;;23.80;99.90;;;;;;5070011;28;20032;-82
2022/08/30 08:35:16;;;;;;;3.30;1.48;;;24.00;99.90;;;;;;5064739;28;20028;-82
2022/08/30 08:37:41;;;;;;;3.10;1.33;;;24.20;99.90;;;;;;5067250;28;20036;-82
2022/08/30 08:40:11;;;;;;;3.03;1.35;;;24.30;99.90;;;;;;5071849;28;20032;-82
2022/08/30 08:42:56;;;;;;;2.70;1.30;;;24.40;99.90;;;;;;5070780;28;20733;-83
2022/08/30 08:45:49;;;;;;;3.78;1.52;;;24.60;99.90;;;;;;5070263;28;20048;-82
2022/08/30 08:48:31;;;;;;;3.78;1.83;;;24.60;99.90;;;;;;5071682;28;20543;-82
2022/08/30 08:53:47;;;;;;;4.53;1.92;;;24.70;99.90;;;;;;5068732;28;19920;-83
2022/08/30 08:56:15;;;;;;;3.47;1.75;;;24.90;99.90;;;;;;5070543;28;20031;-83
2022/08/30 08:58:54;;;;;;;2.72;1.42;;;25.10;99.90;;;;;;5071116;28;20060;-83
2022/08/30 09:01:23;;;;;;;3.53;1.80;;;25.30;99.90;;;;;;5065830;28;20048;-83
2022/08/30 09:03:50;;;;;;;3.58;1.60;;;25.30;99.90;;;;;;5070356;28;20032;-83
2022/08/30 09:06:41;;;;;;;2.92;1.30;;;25.40;99.90;;;;;;5069598;28;20017;-84
2022/08/30 09:09:07;;;;;;;3.38;1.60;;;25.40;99.90;;;;;;5057923;28;20115;-84
2022/08/30 09:11:36;;;;;;;3.88;2.10;;;25.50;99.90;;;;;;5069675;28;20117;-83
2022/08/30 09:14:11;;;;;;;3.28;1.70;;;25.70;99.90;;;;;;5067299;28;20021;-83
2022/08/30 09:16:56;;;;;;;2.35;1.35;;;25.60;99.90;;;;;;5066283;28;20033;-83
2022/08/30 09:19:51;;;;;;;2.55;1.30;;;25.70;99.90;;;;;;5090784;28;20102;-83
2022/08/30 09:22:39;;;;;;;3.05;1.50;;;26.00;99.90;;;;;;5078053;22;20054;-85
2022/08/30 09:25:10;;;;;;;2.80;1.60;;;26.10;99.70;;;;;;5073444;28;20431;-85
2022/08/30 09:27:42;;;;;;;4.10;1.80;;;26.30;99.90;;;;;;5074481;28;20025;-85
2022/08/30 09:30:20;;;;;;;2.78;1.60;;;26.40;99.70;;;;;;5072537;28;20028;-85
2022/08/30 09:32:58;;;;;;;2.92;1.50;;;26.40;99.40;;;;;;5049032;28;20025;-85
2022/08/30 09:35:47;;;;;;;3.42;1.80;;;26.20;98.90;;;;;;5056647;28;20049;-85
2022/08/30 09:38:22;;;;;;;3.22;1.42;;;26.20;99.30;;;;;;5044231;28;20392;-86
2022/08/30 09:41:47;;;;;;;2.58;1.27;;;26.40;99.10;;;;;;5051827;28;20036;-85
2022/08/30 09:44:17;;;;;;;4.25;1.90;;;26.70;98.40;;;;;;5014880;28;20030;-85
2022/08/30 09:46:49;;;;;;;2.88;1.48;;;26.90;98.10;;;;;;5049885;28;20032;-85
2022/08/30 09:49:30;;;;;;;3.40;1.40;;;27.10;98.30;;;;;;5051736;28;20025;-85
2022/08/30 09:52:09;;;;;;;2.40;1.20;;;26.80;96.80;;;;;;5069139;28;20052;-85
2022/08/30 09:54:51;;;;;;;2.80;1.40;;;26.80;97.60;;;;;;5052401;28;20025;-85
2022/08/30 09:57:42;;;;;;;3.15;1.55;;;27.00;96.90;;;;;;5052226;28;20490;-85
2022/08/30 10:00:22;;;;;;;2.83;1.45;;;26.90;97.10;;;;;;5042719;28;20105;-85
2022/08/30 10:03:01;;;;;;;3.05;1.70;;;26.80;96.70;;;;;;5069083;28;20032;-85
2022/08/30 10:06:00;;;;;;;2.58;1.23;;;27.00;96.60;;;;;;5050852;28;20108;-85
2022/08/30 10:08:41;;;;;;;2.40;1.27;;;26.90;96.70;;;;;;5051246;28;20028;-86
2022/08/30 10:11:12;;;;;;;;;;;27.00;96.10;;;;;;5068875;28;20028;-85
2022/08/30 10:13:55;;;;;;;3.28;1.40;;;27.30;96.30;;;;;;5053297;28;20013;-86
2022/08/30 10:16:44;;;;;;;3.22;1.35;;;27.20;95.80;;;;;;5045004;28;20116;-85
2022/08/30 10:19:35;;;;;;;3.08;1.42;;;27.50;95.40;;;;;;5052278;28;20106;-87
2022/08/30 10:22:07;;;;;;;3.13;1.20;;;27.60;95.30;;;;;;5048538;28;20087;-86
2022/08/30 10:24:44;;;;;;;3.15;1.40;;;27.80;94.90;;;;;;5046988;28;20025;-86
2022/08/30 10:27:17;;;;;;;3.05;1.20;;;27.90;95.30;;;;;;5051600;28;20103;-86
2022/08/30 10:29:47;;;;;;;2.17;1.10;;;27.90;95.20;;;;;;5049476;28;20088;-86
2022/08/30 10:32:36;;;;;;;2.37;1.00;;;27.80;94.20;;;;;;5041381;28;20025;-86
2022/08/30 10:35:05;;;;;;;3.95;1.55;;;27.80;94.20;;;;;;5057576;28;20037;-86
2022/08/30 10:37:34;;;;;;;4.22;1.50;;;28.20;94.10;;;;;;5047545;28;20512;-86
2022/08/30 10:43:15;;;;;;;2.67;1.35;;;28.50;93.10;;;;;;5043080;28;20040;-86
2022/08/30 10:45:45;;;;;;;3.05;1.42;;;28.40;92.90;;;;;;5046732;28;20477;-87
2022/08/30 10:48:23;;;;;;;2.37;1.40;;;28.50;93.20;;;;;;5067865;28;20021;-86
2022/08/30 10:50:53;;;;;;;2.47;1.10;;;28.70;92.10;;;;;;5048198;28;20508;-86
2022/08/30 10:53:24;;;;;;;2.67;1.40;;;28.50;91.80;;;;;;5050371;28;20100;-86
2022/08/30 10:56:02;;;;;;;3.28;1.60;;;28.30;91.70;;;;;;5047895;28;20474;-86
2022/08/30 10:58:30;;;;;;;4.10;1.38;;;27.90;92.50;;;;;;5050545;28;20071;-86
2022/08/30 11:01:09;;;;;;;2.95;1.20;;;27.90;92.10;;;;;;5049492;28;20055;-86
2022/08/30 11:04:02;;;;;;;4.18;1.25;;;28.30;92.70;;;;;;5041287;28;20061;-85
2022/08/30 11:07:05;;;;;;;2.58;1.20;;;28.70;91.30;;;;;;5051201;28;20028;-86
2022/08/30 11:10:10;;;;;;;2.85;1.25;;;28.90;90.80;;;;;;5059795;28;20458;-86
2022/08/30 11:13:07;;;;;;;4.43;2.17;;;28.50;90.40;;;;;;5042366;28;20107;-86
2022/08/30 11:16:01;;;;;;;3.05;1.45;;;29.10;90.10;;;;;;5058616;28;20032;-86
2022/08/30 11:19:01;;;;;;;3.25;1.33;;;28.90;90.60;;;;;;5064735;28;20020;-86
2022/08/30 11:21:38;;;;;;;2.60;1.30;;;28.50;90.70;;;;;;5046278;28;20033;-85
2022/08/30 11:24:09;;;;;;;2.78;1.38;;;28.60;89.90;;;;;;5047512;28;20079;-87
2022/08/30 11:26:49;;;;;;;2.83;1.20;;;28.80;89.80;;;;;;5047679;28;20200;-86
2022/08/30 11:29:34;;;;;;;2.00;1.05;;;28.80;88.60;;;;;;5047351;28;20268;-86
2022/08/30 11:32:11;;;;;;;2.60;1.15;;;28.70;90.60;;;;;;5049733;28;20025;-85
2022/08/30 11:34:46;;;;;;;5.15;1.15;;;29.30;90.60;;;;;;5052415;28;20029;-86
2022/08/30 11:37:46;;;;;;;2.28;1.13;;;29.10;90.00;;;;;;5064811;28;20550;-86
2022/08/30 11:40:23;;;;;;;2.55;1.10;;;29.00;88.90;;;;;;5050671;28;20495;-86
2022/08/30 11:42:54;;;;;;;3.08;1.15;;;28.80;89.20;;;;;;5050555;28;20039;-86
2022/08/30 11:45:23;;;;;;;3.20;1.08;;;28.70;90.00;;;;;;5055344;28;20593;-87
2022/08/30 11:47:50;;;;;;;3.33;1.30;;;28.60;90.30;;;;;;5046947;28;20211;-86
2022/08/30 11:50:21;;;;;;;2.90;1.27;;;28.50;90.10;;;;;;5050152;28;20146;-86
2022/08/30 11:53:10;;;;;;;2.28;1.27;;;28.40;90.10;;;;;;5051797;28;20110;-86
2022/08/30 11:56:07;;;;;;;2.67;1.35;;;28.40;90.20;;;;;;5051871;28;20024;-86
2022/08/30 11:58:38;;;;;;;3.55;1.35;;;28.50;90.60;;;;;;5050287;28;20485;-86
2022/08/30 12:01:25;;;;;;;2.40;1.10;;;28.60;90.00;;;;;;5050743;28;20024;-86
2022/08/30 12:04:06;;;;;;;3.35;0.82;;;28.60;90.40;;;;;;5054125;28;20028;-87
2022/08/30 12:06:40;;;;;;;2.53;1.25;;;28.40;90.70;;;;;;5052340;28;20146;-87
2022/08/30 12:09:24;;;;;;;2.38;1.20;;;28.40;90.00;;;;;;5050900;28;20048;-87
2022/08/30 12:12:04;;;;;;;2.58;1.10;;;28.40;90.00;;;;;;5052132;28;20033;-87
2022/08/30 12:14:32;;;;;;;2.75;1.38;;;28.40;89.90;;;;;;5050858;28;20082;-87
2022/08/30 12:19:46;;;;;;;2.33;1.15;;;28.60;90.30;;;;;;5051827;28;20064;-87
2022/08/30 12:22:16;;;;;;;2.45;1.10;;;28.60;89.80;;;;;;5049932;28;20063;-88
2022/08/30 12:24:47;;;;;;;2.17;1.08;;;29.00;87.60;;;;;;5049782;28;20505;-87
2022/08/30 12:27:23;;;;;;;;;;;29.20;88.40;;;;;;5051694;28;20448;-87
2022/08/30 12:29:55;;;;;;;2.80;1.40;;;29.30;86.80;;;;;;5056356;28;20335;-88
2022/08/30 12:32:22;;;;;;;3.38;1.30;;;29.40;87.80;;;;;;5053095;28;20112;-87
2022/08/30 12:34:49;;;;;;;3.00;1.20;;;29.60;87.20;;;;;;5056939;28;20088;-86
2022/08/30 12:37:35;;;;;;;2.72;1.42;;;29.30;86.80;;;;;;5053006;28;20029;-87
2022/08/30 12:40:03;;;;;;;2.83;1.20;;;29.20;86.90;;;;;;5049139;28;20571;-86
2022/08/30 12:42:32;;;;;;;2.20;1.20;;;29.20;87.50;;;;;;5050344;28;20048;-87
2022/08/30 12:45:14;;;;;;;2.97;1.20;;;29.10;88.10;;;;;;5049460;28;20146;-87
2022/08/30 12:47:50;;;;;;;3.33;1.40;;;29.20;87.60;;;;;;5066394;28;20032;-87
2022/08/30 12:50:22;;;;;;;2.92;1.48;;;29.30;87.20;;;;;;5045220;28;20136;-88
2022/08/30 12:52:57;;;;;;;2.63;1.35;;;29.60;86.60;;;;;;5063753;28;20028;-87
2022/08/30 12:55:32;;;;;;;2.90;1.30;;;29.70;86.80;;;;;;5061584;28;20062;-88
2022/08/30 12:58:08;;;;;;;3.13;1.40;;;29.40;86.70;;;;;;5044193;28;20064;-87
2022/08/30 13:00:33;;;;;;;2.90;1.35;;;29.30;86.10;;;;;;5050387;28;20028;-87
2022/08/30 13:03:03;;;;;;;2.30;1.13;;;29.20;85.50;;;;;;5049278;28;20047;-87
2022/08/30 13:05:44;;;;;;;2.92;1.40;;;29.40;86.40;;;;;;5049530;28;20103;-87
2022/08/30 13:08:18;;;;;;;2.47;1.20;;;29.70;85.70;;;;;;5050299;28;20028;-87
2022/08/30 13:11:00;;;;;;;2.35;1.10;;;30.20;84.70;;;;;;5048206;28;20108;-87
2022/08/30 13:13:45;;;;;;;2.58;1.20;;;30.70;83.40;;;;;;5044843;28;20420;-87
2022/08/30 13:16:17;;;;;;;3.10;1.40;;;31.10;84.10;;;;;;5050499;28;20377;-87